ICAO code: LHPR | IATA code: QGY | SITA: QGYAPXH | AFTN: LHPRZPZX

Időjárási adatok

METAR LHPR 102045Z AUTO 14009KT CAVOK 08/00 Q1018=
TAF LHPR 102000Z NIL=
Nem volt érdemleges időjárási jelenség az elmúlt órában
2021-04-10 21:00:00 UTC
Hőmérséklet
7.4 °C
 
Harmatpont
0.2 °C
 
Rel. páratartalom
60%
 
QNH
1018.1 hPa
 
Szélsebesség
4.4 m/s
Max
5.1 m/s
Szélirány
150°
 
Csapadék (1 óra)
0.0 mm
 
Látótávolság
20000 m
 
RVR
>1500 m RWY30
 
1. felhőréteg mennyisége
0 octa
 
1. felhőréteg alapja
m